createdAt,value
2023-09-29T00:02:04.794Z,15.00
2023-09-29T00:05:08.945Z,15.00
2023-09-29T00:08:17.209Z,15.00
2023-09-29T00:11:21.750Z,14.00
2023-09-29T00:14:25.291Z,16.20
2023-09-29T00:17:28.900Z,14.20
2023-09-29T00:20:32.112Z,16.40
2023-09-29T00:23:36.278Z,16.00
2023-09-29T00:26:40.905Z,17.00
2023-09-29T00:29:44.356Z,14.00
2023-09-29T00:32:48.553Z,14.40
2023-09-29T00:35:52.537Z,15.40
2023-09-29T00:38:55.972Z,13.67
2023-09-29T00:42:00.830Z,17.00
2023-09-29T00:45:04.688Z,18.60
2023-09-29T00:48:10.115Z,15.00
2023-09-29T00:51:14.097Z,16.40
2023-09-29T00:54:17.776Z,16.75
2023-09-29T00:57:22.647Z,16.40
2023-09-29T01:00:33.029Z,13.00
2023-09-29T01:03:36.394Z,17.00
2023-09-29T01:06:39.644Z,15.20
2023-09-29T01:09:42.860Z,17.75
2023-09-29T01:12:47.684Z,16.80
2023-09-29T01:15:50.982Z,15.00
2023-09-29T01:18:54.468Z,15.80
2023-09-29T01:21:57.688Z,14.60
2023-09-29T01:25:02.908Z,17.60
2023-09-29T01:28:07.511Z,14.00
2023-09-29T01:31:10.679Z,15.00
2023-09-29T01:34:14.157Z,16.00
2023-09-29T01:37:17.250Z,15.80
2023-09-29T01:40:23.246Z,16.00
2023-09-29T01:43:26.282Z,17.00
2023-09-29T01:46:30.640Z,16.50
2023-09-29T01:49:33.764Z,16.40
2023-09-29T01:52:37.407Z,16.00
2023-09-29T01:55:42.030Z,14.80
2023-09-29T01:58:46.874Z,14.00
2023-09-29T02:01:50.606Z,13.40
2023-09-29T02:04:55.294Z,12.00
2023-09-29T02:07:59.236Z,14.00
2023-09-29T02:11:04.067Z,13.00
2023-09-29T02:14:07.578Z,14.00
2023-09-29T02:17:16.037Z,16.00
2023-09-29T02:20:22.007Z,15.40
2023-09-29T02:23:25.163Z,15.80
2023-09-29T02:26:30.410Z,15.20
2023-09-29T02:29:33.985Z,14.00
2023-09-29T02:32:37.548Z,14.20
2023-09-29T02:35:42.921Z,15.20
2023-09-29T02:38:46.697Z,13.00
2023-09-29T02:41:51.274Z,16.40
2023-09-29T02:44:55.332Z,13.40
2023-09-29T02:47:58.801Z,15.50
2023-09-29T02:51:02.831Z,15.40
2023-09-29T02:54:06.610Z,17.60
2023-09-29T02:57:11.117Z,16.40
2023-09-29T03:00:20.377Z,16.00
2023-09-29T03:03:27.829Z,14.00
2023-09-29T03:06:31.625Z,13.00
2023-09-29T03:09:35.230Z,13.00
2023-09-29T03:12:40.089Z,14.00
2023-09-29T03:15:44.933Z,14.00
2023-09-29T03:18:48.274Z,18.00
2023-09-29T03:21:51.386Z,15.40
2023-09-29T03:24:54.512Z,13.75
2023-09-29T03:28:01.017Z,14.50
2023-09-29T03:31:09.002Z,13.40
2023-09-29T03:34:12.111Z,14.80
2023-09-29T03:37:15.179Z,14.00
2023-09-29T03:40:19.692Z,13.20
2023-09-29T03:43:24.575Z,16.00
2023-09-29T03:46:30.241Z,13.40
2023-09-29T03:49:36.336Z,13.00
2023-09-29T03:52:40.470Z,14.00
2023-09-29T03:55:43.722Z,17.00
2023-09-29T03:58:48.212Z,13.00
2023-09-29T04:01:51.346Z,14.80
2023-09-29T04:04:54.526Z,14.00
2023-09-29T04:07:57.661Z,12.00
2023-09-29T04:11:00.855Z,12.00
2023-09-29T04:14:05.651Z,12.00
2023-09-29T04:17:08.988Z,14.40
2023-09-29T04:20:12.865Z,12.00
2023-09-29T04:23:15.998Z,11.00
2023-09-29T04:26:21.498Z,12.25
2023-09-29T04:29:26.132Z,12.60
2023-09-29T04:32:29.219Z,14.00
2023-09-29T04:35:32.565Z,14.40
2023-09-29T04:38:35.934Z,13.60
2023-09-29T04:41:39.725Z,14.25
2023-09-29T04:44:44.305Z,12.00
2023-09-29T04:47:48.306Z,15.00
2023-09-29T04:50:51.548Z,18.00
2023-09-29T04:53:54.776Z,14.40
2023-09-29T04:56:58.400Z,12.00
2023-09-29T05:00:03.325Z,12.60
2023-09-29T05:03:07.718Z,12.20
2023-09-29T05:06:11.355Z,15.00
2023-09-29T05:09:14.697Z,13.40
2023-09-29T05:12:17.844Z,13.00
2023-09-29T05:15:22.292Z,12.75
2023-09-29T05:18:25.677Z,13.00
2023-09-29T05:21:28.906Z,15.00
2023-09-29T05:24:32.058Z,17.00
2023-09-29T05:27:35.397Z,16.00
2023-09-29T05:30:39.991Z,13.40
2023-09-29T05:33:43.286Z,16.60
2023-09-29T05:36:46.786Z,16.00
2023-09-29T05:39:49.996Z,14.20
2023-09-29T05:42:53.927Z,16.00
2023-09-29T05:45:59.439Z,13.00
2023-09-29T05:49:02.815Z,14.40
2023-09-29T05:52:06.221Z,15.00
2023-09-29T05:55:10.537Z,14.00
2023-09-29T05:58:13.631Z,13.00
2023-09-29T06:01:18.353Z,15.40
2023-09-29T06:04:21.909Z,14.00
2023-09-29T06:07:25.092Z,14.00
2023-09-29T06:10:28.252Z,15.00
2023-09-29T06:13:31.805Z,15.80
2023-09-29T06:16:36.266Z,15.00
2023-09-29T06:19:39.609Z,15.00
2023-09-29T06:22:42.696Z,15.00
2023-09-29T06:25:45.874Z,16.00
2023-09-29T06:28:48.974Z,15.60
2023-09-29T06:31:54.960Z,16.50
2023-09-29T06:34:58.006Z,16.00
2023-09-29T06:38:01.411Z,14.00
2023-09-29T06:41:04.667Z,17.00
2023-09-29T06:44:08.364Z,19.40
2023-09-29T06:47:12.841Z,19.20
2023-09-29T06:50:16.175Z,14.40
2023-09-29T06:53:19.263Z,13.00
2023-09-29T06:56:22.353Z,13.00
2023-09-29T06:59:25.684Z,13.00
2023-09-29T07:02:30.178Z,13.00
2023-09-29T07:05:33.437Z,14.60
2023-09-29T07:08:36.568Z,11.00
2023-09-29T07:11:41.545Z,15.60
2023-09-29T07:14:44.962Z,16.00
2023-09-29T07:17:49.494Z,12.00
2023-09-29T07:20:54.088Z,14.00
2023-09-29T07:23:58.042Z,12.20
2023-09-29T07:27:01.289Z,12.00
2023-09-29T07:30:05.244Z,13.00
2023-09-29T07:33:10.377Z,11.20
2023-09-29T07:36:13.909Z,11.60
2023-09-29T07:39:19.301Z,12.00
2023-09-29T07:42:22.907Z,12.00
2023-09-29T07:45:26.405Z,11.00
2023-09-29T07:48:30.975Z,13.00
2023-09-29T07:51:34.333Z,12.00
2023-09-29T07:54:37.484Z,14.00
2023-09-29T07:57:41.155Z,12.00
2023-09-29T08:00:45.102Z,11.00
2023-09-29T08:03:50.734Z,14.00
2023-09-29T08:06:54.138Z,11.00
2023-09-29T08:09:57.345Z,11.20
2023-09-29T08:13:00.442Z,12.00
2023-09-29T08:16:03.669Z,13.00
2023-09-29T08:19:08.106Z,14.00
2023-09-29T08:22:11.472Z,11.75
2023-09-29T08:25:15.765Z,15.40
2023-09-29T08:28:18.942Z,12.00
2023-09-29T08:31:22.130Z,14.00
2023-09-29T08:34:29.936Z,12.60
2023-09-29T08:37:33.338Z,11.00
2023-09-29T08:40:40.446Z,11.60
2023-09-29T08:43:55.887Z,11.00
2023-09-29T08:47:04.463Z,13.00
2023-09-29T08:50:10.805Z,12.00
2023-09-29T08:53:16.125Z,11.00
2023-09-29T08:56:20.208Z,10.33
2023-09-29T08:59:23.976Z,13.00
2023-09-29T09:02:27.618Z,14.00
2023-09-29T09:05:32.393Z,14.00
2023-09-29T09:08:35.920Z,11.00
2023-09-29T09:11:45.825Z,11.80
2023-09-29T09:14:48.981Z,12.00
2023-09-29T09:17:52.324Z,13.00
2023-09-29T09:20:58.321Z,10.40
2023-09-29T09:24:01.824Z,9.00
2023-09-29T09:27:05.028Z,8.75
2023-09-29T09:30:22.449Z,8.25
2023-09-29T09:33:27.020Z,7.40
2023-09-29T09:36:31.526Z,7.00
2023-09-29T09:39:36.069Z,8.00
2023-09-29T09:42:41.040Z,9.00
2023-09-29T09:45:48.870Z,10.00
2023-09-29T09:48:57.869Z,8.60
2023-09-29T09:52:07.880Z,8.00
2023-09-29T09:55:13.288Z,9.40
2023-09-29T09:58:18.320Z,9.00
2023-09-29T10:01:22.715Z,8.00
2023-09-29T10:04:27.881Z,9.40
2023-09-29T10:07:32.823Z,10.00
2023-09-29T10:10:37.648Z,8.00
2023-09-29T10:13:42.050Z,10.00
2023-09-29T10:16:45.876Z,8.00
2023-09-29T10:19:52.317Z,8.60
2023-09-29T10:23:07.817Z,9.00
2023-09-29T10:26:12.010Z,7.80
2023-09-29T10:29:22.385Z,11.00
2023-09-29T10:32:36.272Z,10.50
2023-09-29T10:35:48.187Z,7.60
2023-09-29T10:38:55.250Z,9.00
2023-09-29T10:42:05.931Z,10.00
2023-09-29T10:45:10.364Z,9.60
2023-09-29T10:48:13.714Z,9.80
2023-09-29T10:51:24.365Z,9.40
2023-09-29T10:54:28.960Z,7.00
2023-09-29T10:57:34.606Z,9.00
2023-09-29T11:00:43.319Z,8.00
2023-09-29T11:03:47.180Z,9.40
2023-09-29T11:06:51.480Z,8.00
2023-09-29T11:09:56.244Z,8.00
2023-09-29T11:12:59.394Z,9.67
2023-09-29T11:16:05.659Z,7.60
2023-09-29T11:19:11.910Z,7.20
2023-09-29T11:22:19.540Z,9.60
2023-09-29T11:25:24.134Z,8.40
2023-09-29T11:28:29.202Z,9.00
2023-09-29T11:31:32.467Z,9.00
2023-09-29T11:34:35.654Z,7.00
2023-09-29T11:37:40.038Z,8.40
2023-09-29T11:40:45.108Z,8.00
2023-09-29T11:43:48.357Z,9.00
2023-09-29T11:46:51.664Z,7.00
2023-09-29T11:49:56.125Z,7.80
2023-09-29T11:53:01.336Z,8.40
2023-09-29T11:56:06.607Z,9.00
2023-09-29T11:59:09.996Z,8.00
2023-09-29T12:02:14.958Z,7.20
2023-09-29T12:05:18.303Z,7.80
2023-09-29T12:08:21.524Z,9.00
2023-09-29T12:11:26.559Z,6.75
2023-09-29T12:14:30.463Z,6.75
2023-09-29T12:17:33.771Z,7.00
2023-09-29T12:20:38.588Z,7.60
2023-09-29T12:23:43.826Z,7.00
2023-09-29T12:26:48.538Z,7.00
2023-09-29T12:29:52.110Z,6.50
2023-09-29T12:32:55.712Z,10.00
2023-09-29T12:36:00.456Z,7.00
2023-09-29T12:39:05.269Z,7.00
2023-09-29T12:42:10.599Z,6.00
2023-09-29T12:45:14.249Z,6.67
2023-09-29T12:48:17.544Z,8.00
2023-09-29T12:51:28.260Z,8.00
2023-09-29T12:54:32.261Z,7.00
2023-09-29T12:57:36.903Z,7.00
2023-09-29T13:00:40.101Z,7.00
2023-09-29T13:03:43.455Z,7.00
2023-09-29T13:06:46.742Z,6.40
2023-09-29T13:09:49.978Z,7.00
2023-09-29T13:12:56.165Z,7.20
2023-09-29T13:16:01.131Z,7.00
2023-09-29T13:19:05.606Z,7.00
2023-09-29T13:22:08.827Z,7.00
2023-09-29T13:25:11.979Z,6.00
2023-09-29T13:28:16.599Z,5.60
2023-09-29T13:31:20.115Z,8.00
2023-09-29T13:34:23.622Z,8.40
2023-09-29T13:37:26.770Z,7.00
2023-09-29T13:40:30.143Z,9.00
2023-09-29T13:43:34.667Z,6.00
2023-09-29T13:46:48.082Z,7.60
2023-09-29T13:50:00.699Z,7.00
2023-09-29T13:53:04.761Z,7.00
2023-09-29T13:56:08.014Z,5.00
2023-09-29T13:59:12.829Z,7.00
2023-09-29T14:02:16.503Z,7.00
2023-09-29T14:05:19.671Z,7.00
2023-09-29T14:08:23.374Z,5.00
2023-09-29T14:11:26.695Z,7.00
2023-09-29T14:14:31.916Z,7.50
2023-09-29T14:17:35.421Z,7.00
2023-09-29T14:20:38.638Z,5.60
2023-09-29T14:23:41.802Z,6.00
2023-09-29T14:26:44.950Z,5.00
2023-09-29T14:29:49.381Z,5.80
2023-09-29T14:32:52.697Z,6.00
2023-09-29T14:35:55.960Z,5.20
2023-09-29T14:38:59.194Z,6.00
2023-09-29T14:42:02.814Z,7.00
2023-09-29T14:45:09.133Z,6.00
2023-09-29T14:48:12.390Z,6.00
2023-09-29T14:51:15.640Z,7.60
2023-09-29T14:54:18.754Z,6.00
2023-09-29T14:57:23.277Z,7.00
2023-09-29T15:00:27.981Z,7.00
2023-09-29T15:03:32.985Z,6.00
2023-09-29T15:06:36.386Z,9.00
2023-09-29T15:09:39.751Z,6.00
2023-09-29T15:12:43.161Z,7.00
2023-09-29T15:15:47.681Z,5.60
2023-09-29T15:18:52.882Z,8.00
2023-09-29T15:21:56.370Z,9.00
2023-09-29T15:24:59.406Z,8.00
2023-09-29T15:28:02.467Z,9.40
2023-09-29T15:31:07.963Z,7.00
2023-09-29T15:34:11.805Z,8.00
2023-09-29T15:37:15.812Z,6.60
2023-09-29T15:40:19.122Z,8.00
2023-09-29T15:43:23.245Z,7.80
2023-09-29T15:46:27.840Z,7.33
2023-09-29T15:49:30.938Z,6.00
2023-09-29T15:52:34.116Z,9.40
2023-09-29T15:55:43.239Z,11.00
2023-09-29T15:58:46.910Z,10.75
2023-09-29T16:01:51.412Z,11.75
2023-09-29T16:04:55.107Z,8.75
2023-09-29T16:07:59.019Z,10.00
2023-09-29T16:11:02.686Z,10.50
2023-09-29T16:14:06.401Z,10.00
2023-09-29T16:17:11.073Z,13.75
2023-09-29T16:20:14.277Z,11.00
2023-09-29T16:23:17.445Z,10.80
2023-09-29T16:26:21.120Z,9.20
2023-09-29T16:29:24.317Z,11.00
2023-09-29T16:32:32.191Z,15.00
2023-09-29T16:35:38.154Z,29.00
2023-09-29T16:38:41.833Z,32.60
2023-09-29T16:41:44.946Z,33.00
2023-09-29T16:44:48.025Z,33.80
2023-09-29T16:47:52.814Z,33.00
2023-09-29T16:50:56.072Z,40.75
2023-09-29T16:54:02.077Z,19.40
2023-09-29T16:57:06.656Z,12.80
2023-09-29T17:00:11.010Z,14.25
2023-09-29T17:03:15.650Z,15.00
2023-09-29T17:06:19.208Z,14.00
2023-09-29T17:09:22.754Z,15.00
2023-09-29T17:12:27.136Z,14.00
2023-09-29T17:15:30.816Z,14.60
2023-09-29T17:18:36.553Z,16.00
2023-09-29T17:21:40.146Z,14.80
2023-09-29T17:24:43.648Z,12.50
2023-09-29T17:27:48.609Z,23.50
2023-09-29T17:30:51.792Z,14.00
2023-09-29T17:33:56.644Z,14.40
2023-09-29T17:36:59.955Z,12.00
2023-09-29T17:40:03.846Z,17.40
2023-09-29T17:43:08.811Z,22.00
2023-09-29T17:46:11.948Z,20.00
2023-09-29T17:49:16.874Z,18.50
2023-09-29T17:52:20.277Z,17.00
2023-09-29T17:55:23.487Z,15.60
2023-09-29T17:58:26.587Z,16.60
2023-09-29T18:01:29.845Z,17.00
2023-09-29T18:04:34.842Z,14.75
2023-09-29T18:07:38.077Z,16.00
2023-09-29T18:10:41.219Z,14.00
2023-09-29T18:13:44.766Z,15.00
2023-09-29T18:16:48.514Z,15.40
2023-09-29T18:19:53.581Z,16.60
2023-09-29T18:22:56.652Z,17.60
2023-09-29T18:25:59.873Z,17.50
2023-09-29T18:29:02.971Z,33.00
2023-09-29T18:32:08.273Z,27.33
2023-09-29T18:35:12.793Z,22.00
2023-09-29T18:38:16.778Z,21.00
2023-09-29T18:41:20.577Z,19.80
2023-09-29T18:44:24.562Z,22.00
2023-09-29T18:47:27.729Z,22.50
2023-09-29T18:50:35.526Z,20.00
2023-09-29T18:53:38.674Z,23.00
2023-09-29T18:56:42.266Z,32.00
2023-09-29T18:59:45.542Z,29.00
2023-09-29T19:02:48.847Z,27.00
2023-09-29T19:05:53.463Z,22.00
2023-09-29T19:08:57.694Z,22.00
2023-09-29T19:12:03.120Z,22.00
2023-09-29T19:15:07.318Z,22.00
2023-09-29T19:18:10.753Z,25.40
2023-09-29T19:21:20.806Z,22.00
2023-09-29T19:24:24.057Z,22.00
2023-09-29T19:27:28.725Z,21.60
2023-09-29T19:30:33.494Z,20.00
2023-09-29T19:33:36.772Z,21.00
2023-09-29T19:36:41.238Z,22.00
2023-09-29T19:39:44.468Z,27.40
2023-09-29T19:42:47.570Z,26.00
2023-09-29T19:45:50.958Z,21.00
2023-09-29T19:48:55.312Z,24.20
2023-09-29T19:52:00.003Z,23.00
2023-09-29T19:55:03.314Z,19.60
2023-09-29T19:58:08.202Z,22.00
2023-09-29T20:01:12.958Z,22.00
2023-09-29T20:04:16.583Z,22.00
2023-09-29T20:07:21.178Z,22.00
2023-09-29T20:10:24.356Z,23.00
2023-09-29T20:13:27.777Z,22.00
2023-09-29T20:16:30.996Z,20.00
2023-09-29T20:19:34.204Z,22.00
2023-09-29T20:22:38.660Z,23.00
2023-09-29T20:25:41.822Z,26.50
2023-09-29T20:28:45.131Z,28.00
2023-09-29T20:31:48.275Z,26.40
2023-09-29T20:34:51.462Z,26.00
2023-09-29T20:37:55.967Z,24.00
2023-09-29T20:40:59.089Z,20.80
2023-09-29T20:44:02.480Z,19.80
2023-09-29T20:47:06.003Z,23.00
2023-09-29T20:50:09.828Z,22.00
2023-09-29T20:53:14.881Z,20.00
2023-09-29T20:56:19.197Z,20.00
2023-09-29T20:59:22.288Z,14.20
2023-09-29T21:02:25.369Z,17.75
2023-09-29T21:05:28.733Z,17.00
2023-09-29T21:08:33.466Z,16.00
2023-09-29T21:11:37.690Z,18.00
2023-09-29T21:14:40.812Z,17.00
2023-09-29T21:17:44.133Z,18.00
2023-09-29T21:20:47.361Z,17.00
2023-09-29T21:23:51.891Z,14.60
2023-09-29T21:26:54.965Z,16.00
2023-09-29T21:29:58.218Z,16.00
2023-09-29T21:33:01.575Z,15.40
2023-09-29T21:36:05.552Z,16.50
2023-09-29T21:39:12.210Z,18.00
2023-09-29T21:42:15.462Z,17.00
2023-09-29T21:45:18.601Z,18.00
2023-09-29T21:48:21.788Z,18.40
2023-09-29T21:51:25.054Z,16.00
2023-09-29T21:54:29.717Z,17.00
2023-09-29T21:57:32.980Z,17.00
2023-09-29T22:00:39.978Z,16.00
2023-09-29T22:03:44.324Z,12.20
2023-09-29T22:06:48.045Z,16.60
2023-09-29T22:09:52.942Z,15.50
2023-09-29T22:12:55.984Z,17.75
2023-09-29T22:15:59.548Z,16.25
2023-09-29T22:19:02.729Z,18.00
2023-09-29T22:22:06.608Z,19.00
2023-09-29T22:25:11.915Z,20.00
2023-09-29T22:28:15.308Z,20.00
2023-09-29T22:31:18.431Z,20.00
2023-09-29T22:34:21.751Z,20.75
2023-09-29T22:37:24.980Z,22.75
2023-09-29T22:40:30.137Z,22.75
2023-09-29T22:43:33.226Z,21.75
2023-09-29T22:46:36.313Z,20.75
2023-09-29T22:49:39.369Z,22.00
2023-09-29T22:52:42.781Z,18.00
2023-09-29T22:55:47.293Z,19.80
2023-09-29T22:58:50.378Z,18.00
2023-09-29T23:01:53.893Z,20.60
2023-09-29T23:04:57.020Z,20.00
2023-09-29T23:08:00.153Z,16.60
2023-09-29T23:11:05.456Z,19.50
2023-09-29T23:14:10.463Z,19.00
2023-09-29T23:17:13.976Z,20.00
2023-09-29T23:20:18.559Z,18.00
2023-09-29T23:23:22.657Z,18.00
2023-09-29T23:26:27.401Z,15.40
2023-09-29T23:29:30.456Z,13.25
2023-09-29T23:32:35.017Z,16.80
2023-09-29T23:35:38.152Z,20.00
2023-09-29T23:38:43.356Z,18.25
2023-09-29T23:41:47.816Z,19.40
2023-09-29T23:44:51.044Z,18.00
2023-09-29T23:47:54.623Z,18.20
2023-09-29T23:50:57.839Z,19.00
2023-09-29T23:54:01.905Z,17.00
2023-09-29T23:57:06.527Z,15.33
